sensor_id;sensor_type;location;lat;lon;timestamp;temperature;humidity
34143;DHT22;20419;10.658;106.724;2022-07-29T00:03:01;31.90;57.00
34143;DHT22;20419;10.658;106.724;2022-07-29T00:10:21;31.90;59.20
34143;DHT22;20419;10.658;106.724;2022-07-29T00:12:47;31.90;59.20
34143;DHT22;20419;10.658;106.724;2022-07-29T00:15:14;31.90;59.20
34143;DHT22;20419;10.658;106.724;2022-07-29T00:22:36;32.00;59.50
34143;DHT22;20419;10.658;106.724;2022-07-29T00:27:30;32.00;59.50
34143;DHT22;20419;10.658;106.724;2022-07-29T00:32:23;31.80;59.30
34143;DHT22;20419;10.658;106.724;2022-07-29T00:37:34;31.90;59.40
34143;DHT22;20419;10.658;106.724;2022-07-29T00:40:01;32.00;59.40
34143;DHT22;20419;10.658;106.724;2022-07-29T00:44:54;32.00;59.40
34143;DHT22;20419;10.658;106.724;2022-07-29T00:49:47;32.00;59.50
34143;DHT22;20419;10.658;106.724;2022-07-29T00:52:14;32.10;59.50
34143;DHT22;20419;10.658;106.724;2022-07-29T00:57:07;32.00;59.60
34143;DHT22;20419;10.658;106.724;2022-07-29T00:59:34;32.00;59.70
34143;DHT22;20419;10.658;106.724;2022-07-29T01:02:02;32.00;59.70
34143;DHT22;20419;10.658;106.724;2022-07-29T01:04:29;32.00;59.70
34143;DHT22;20419;10.658;106.724;2022-07-29T01:06:56;32.10;59.80
34143;DHT22;20419;10.658;106.724;2022-07-29T01:09:23;32.00;57.80
34143;DHT22;20419;10.658;106.724;2022-07-29T01:11:50;32.00;59.90
34143;DHT22;20419;10.658;106.724;2022-07-29T01:14:16;32.00;59.90
34143;DHT22;20419;10.658;106.724;2022-07-29T01:16:51;32.10;60.00
34143;DHT22;20419;10.658;106.724;2022-07-29T01:24:30;32.10;60.30
34143;DHT22;20419;10.658;106.724;2022-07-29T01:27:45;32.10;60.30
34143;DHT22;20419;10.658;106.724;2022-07-29T01:29:52;32.10;60.20
34143;DHT22;20419;10.658;106.724;2022-07-29T01:32:21;32.10;60.30
34143;DHT22;20419;10.658;106.724;2022-07-29T01:35:32;32.10;60.30
34143;DHT22;20419;10.658;106.724;2022-07-29T01:40:07;32.10;60.10
34143;DHT22;20419;10.658;106.724;2022-07-29T01:42:36;32.10;58.50
34143;DHT22;20419;10.658;106.724;2022-07-29T01:50:16;32.10;60.30
34143;DHT22;20419;10.658;106.724;2022-07-29T01:53:04;32.20;60.80
34143;DHT22;20419;10.658;106.724;2022-07-29T01:57:58;32.10;59.50
34143;DHT22;20419;10.658;106.724;2022-07-29T02:02:52;32.20;61.20
34143;DHT22;20419;10.658;106.724;2022-07-29T02:05:20;32.20;61.10
34143;DHT22;20419;10.658;106.724;2022-07-29T02:07:48;32.10;61.00
34143;DHT22;20419;10.658;106.724;2022-07-29T02:10:16;32.20;61.70
34143;DHT22;20419;10.658;106.724;2022-07-29T02:12:43;32.20;61.20
34143;DHT22;20419;10.658;106.724;2022-07-29T02:15:10;32.20;61.10
34143;DHT22;20419;10.658;106.724;2022-07-29T02:24:57;32.20;61.10
34143;DHT22;20419;10.658;106.724;2022-07-29T02:27:24;32.20;61.20
34143;DHT22;20419;10.658;106.724;2022-07-29T02:32:19;32.20;61.10
34143;DHT22;20419;10.658;106.724;2022-07-29T02:34:47;32.20;61.00
34143;DHT22;20419;10.658;106.724;2022-07-29T02:39:42;32.20;61.30
34143;DHT22;20419;10.658;106.724;2022-07-29T02:42:11;32.10;60.90
34143;DHT22;20419;10.658;106.724;2022-07-29T02:44:39;32.20;60.90
34143;DHT22;20419;10.658;106.724;2022-07-29T02:47:07;32.10;60.90
34143;DHT22;20419;10.658;106.724;2022-07-29T02:52:04;32.20;61.00
34143;DHT22;20419;10.658;106.724;2022-07-29T02:59:26;32.30;61.10
34143;DHT22;20419;10.658;106.724;2022-07-29T03:01:54;32.20;60.80
34143;DHT22;20419;10.658;106.724;2022-07-29T03:04:22;32.30;61.00
34143;DHT22;20419;10.658;106.724;2022-07-29T03:06:50;32.20;61.40
34143;DHT22;20419;10.658;106.724;2022-07-29T03:09:18;32.30;60.80
34143;DHT22;20419;10.658;106.724;2022-07-29T03:19:05;32.20;60.90
34143;DHT22;20419;10.658;106.724;2022-07-29T03:21:32;32.30;61.00
34143;DHT22;20419;10.658;106.724;2022-07-29T03:24:00;32.20;61.00
34143;DHT22;20419;10.658;106.724;2022-07-29T03:28:53;32.20;60.90
34143;DHT22;20419;10.658;106.724;2022-07-29T03:31:20;32.30;60.90
34143;DHT22;20419;10.658;106.724;2022-07-29T03:33:47;32.30;61.00
34143;DHT22;20419;10.658;106.724;2022-07-29T03:36:14;32.30;61.00
34143;DHT22;20419;10.658;106.724;2022-07-29T03:38:40;32.30;58.90
34143;DHT22;20419;10.658;106.724;2022-07-29T03:41:09;32.40;61.00
34143;DHT22;20419;10.658;106.724;2022-07-29T03:43:38;32.30;60.90
34143;DHT22;20419;10.658;106.724;2022-07-29T03:46:06;32.30;60.90
34143;DHT22;20419;10.658;106.724;2022-07-29T03:48:34;32.30;60.50
34143;DHT22;20419;10.658;106.724;2022-07-29T03:51:02;32.30;60.80
34143;DHT22;20419;10.658;106.724;2022-07-29T03:53:29;32.20;61.00
34143;DHT22;20419;10.658;106.724;2022-07-29T03:55:57;32.40;61.00
34143;DHT22;20419;10.658;106.724;2022-07-29T04:03:18;32.30;60.90
34143;DHT22;20419;10.658;106.724;2022-07-29T04:05:48;32.30;60.90
34143;DHT22;20419;10.658;106.724;2022-07-29T04:08:23;32.30;60.90
34143;DHT22;20419;10.658;106.724;2022-07-29T04:10:50;32.40;60.90
34143;DHT22;20419;10.658;106.724;2022-07-29T04:13:18;32.40;60.90
34143;DHT22;20419;10.658;106.724;2022-07-29T04:15:45;32.30;60.90
34143;DHT22;20419;10.658;106.724;2022-07-29T04:18:12;32.40;61.10
34143;DHT22;20419;10.658;106.724;2022-07-29T04:23:05;32.40;61.00
34143;DHT22;20419;10.658;106.724;2022-07-29T04:25:32;32.30;60.80
34143;DHT22;20419;10.658;106.724;2022-07-29T04:30:28;32.30;60.80
34143;DHT22;20419;10.658;106.724;2022-07-29T04:32:55;32.40;60.80
34143;DHT22;20419;10.658;106.724;2022-07-29T04:35:22;32.40;61.00
34143;DHT22;20419;10.658;106.724;2022-07-29T04:37:48;32.40;60.90
34143;DHT22;20419;10.658;106.724;2022-07-29T04:40:15;32.30;60.80
34143;DHT22;20419;10.658;106.724;2022-07-29T04:42:42;32.30;60.90
34143;DHT22;20419;10.658;106.724;2022-07-29T04:47:35;32.40;61.00
34143;DHT22;20419;10.658;106.724;2022-07-29T04:50:02;32.40;60.90
34143;DHT22;20419;10.658;106.724;2022-07-29T04:52:29;32.30;60.80
34143;DHT22;20419;10.658;106.724;2022-07-29T04:54:55;32.40;60.90
34143;DHT22;20419;10.658;106.724;2022-07-29T04:57:22;32.40;60.90
34143;DHT22;20419;10.658;106.724;2022-07-29T04:59:49;32.30;60.80
34143;DHT22;20419;10.658;106.724;2022-07-29T05:02:15;32.40;60.90
34143;DHT22;20419;10.658;106.724;2022-07-29T05:04:42;32.40;60.90
34143;DHT22;20419;10.658;106.724;2022-07-29T05:07:09;32.40;59.40
34143;DHT22;20419;10.658;106.724;2022-07-29T05:09:35;32.40;60.90
34143;DHT22;20419;10.658;106.724;2022-07-29T05:12:02;32.40;60.80
34143;DHT22;20419;10.658;106.724;2022-07-29T05:16:55;32.40;60.90
34143;DHT22;20419;10.658;106.724;2022-07-29T05:19:23;32.40;60.90
34143;DHT22;20419;10.658;106.724;2022-07-29T05:26:42;32.30;60.80
34143;DHT22;20419;10.658;106.724;2022-07-29T05:29:09;32.40;60.90
34143;DHT22;20419;10.658;106.724;2022-07-29T05:31:36;32.40;60.90
34143;DHT22;20419;10.658;106.724;2022-07-29T05:34:03;32.40;60.90
34143;DHT22;20419;10.658;106.724;2022-07-29T05:36:30;32.40;60.90
34143;DHT22;20419;10.658;106.724;2022-07-29T05:38:56;32.40;60.90
34143;DHT22;20419;10.658;106.724;2022-07-29T05:43:50;32.40;61.00
34143;DHT22;20419;10.658;106.724;2022-07-29T05:46:16;32.40;60.80
34143;DHT22;20419;10.658;106.724;2022-07-29T05:51:10;32.40;60.90
34143;DHT22;20419;10.658;106.724;2022-07-29T05:56:03;32.30;60.80
34143;DHT22;20419;10.658;106.724;2022-07-29T05:58:33;32.40;60.90
34143;DHT22;20419;10.658;106.724;2022-07-29T06:01:00;32.40;58.60
34143;DHT22;20419;10.658;106.724;2022-07-29T06:05:53;32.40;60.90
34143;DHT22;20419;10.658;106.724;2022-07-29T06:08:20;32.50;61.00
34143;DHT22;20419;10.658;106.724;2022-07-29T06:15:42;32.40;60.90
34143;DHT22;20419;10.658;106.724;2022-07-29T06:18:09;32.40;60.90
34143;DHT22;20419;10.658;106.724;2022-07-29T06:20:36;32.50;59.30
34143;DHT22;20419;10.658;106.724;2022-07-29T06:23:03;32.40;60.60
34143;DHT22;20419;10.658;106.724;2022-07-29T06:25:30;32.50;60.80
34143;DHT22;20419;10.658;106.724;2022-07-29T06:28:00;32.50;60.90
34143;DHT22;20419;10.658;106.724;2022-07-29T06:30:27;32.50;60.80
34143;DHT22;20419;10.658;106.724;2022-07-29T06:32:54;32.50;59.50
34143;DHT22;20419;10.658;106.724;2022-07-29T06:35:21;32.40;60.90
34143;DHT22;20419;10.658;106.724;2022-07-29T06:37:47;32.40;60.90
34143;DHT22;20419;10.658;106.724;2022-07-29T06:40:14;32.50;60.90
34143;DHT22;20419;10.658;106.724;2022-07-29T06:47:52;32.50;60.80
34143;DHT22;20419;10.658;106.724;2022-07-29T06:55:12;32.50;60.70
34143;DHT22;20419;10.658;106.724;2022-07-29T07:00:05;32.50;60.70
34143;DHT22;20419;10.658;106.724;2022-07-29T07:04:59;32.50;60.80
34143;DHT22;20419;10.658;106.724;2022-07-29T07:09:52;32.50;60.80
34143;DHT22;20419;10.658;106.724;2022-07-29T07:14:45;32.50;60.70
34143;DHT22;20419;10.658;106.724;2022-07-29T07:17:12;32.60;60.90
34143;DHT22;20419;10.658;106.724;2022-07-29T07:19:38;32.50;60.70
34143;DHT22;20419;10.658;106.724;2022-07-29T07:22:05;32.60;60.90
34143;DHT22;20419;10.658;106.724;2022-07-29T07:26:58;32.50;60.90
34143;DHT22;20419;10.658;106.724;2022-07-29T07:29:25;32.60;60.90
34143;DHT22;20419;10.658;106.724;2022-07-29T07:31:51;32.50;60.80
34143;DHT22;20419;10.658;106.724;2022-07-29T07:36:45;32.50;60.70
34143;DHT22;20419;10.658;106.724;2022-07-29T07:41:38;32.50;60.80
34143;DHT22;20419;10.658;106.724;2022-07-29T07:44:05;32.50;60.70
34143;DHT22;20419;10.658;106.724;2022-07-29T07:46:32;32.50;60.70
34143;DHT22;20419;10.658;106.724;2022-07-29T07:48:58;32.60;61.20
34143;DHT22;20419;10.658;106.724;2022-07-29T07:56:18;32.60;60.80
34143;DHT22;20419;10.658;106.724;2022-07-29T07:58:45;32.60;60.80
34143;DHT22;20419;10.658;106.724;2022-07-29T08:01:11;32.50;60.70
34143;DHT22;20419;10.658;106.724;2022-07-29T08:03:38;32.50;60.70
34143;DHT22;20419;10.658;106.724;2022-07-29T08:08:31;32.60;60.90
34143;DHT22;20419;10.658;106.724;2022-07-29T08:10:58;32.60;60.80
34143;DHT22;20419;10.658;106.724;2022-07-29T08:15:56;32.60;60.90
34143;DHT22;20419;10.658;106.724;2022-07-29T08:18:37;32.60;60.90
34143;DHT22;20419;10.658;106.724;2022-07-29T08:21:04;32.60;60.80
34143;DHT22;20419;10.658;106.724;2022-07-29T08:23:31;32.60;59.90
34143;DHT22;20419;10.658;106.724;2022-07-29T08:26:05;32.60;60.90
34143;DHT22;20419;10.658;106.724;2022-07-29T08:28:32;32.50;60.70
34143;DHT22;20419;10.658;106.724;2022-07-29T08:35:51;32.60;60.60
34143;DHT22;20419;10.658;106.724;2022-07-29T08:48:05;32.70;60.90
34143;DHT22;20419;10.658;106.724;2022-07-29T08:50:32;32.60;60.80
34143;DHT22;20419;10.658;106.724;2022-07-29T08:53:01;32.70;60.80
34143;DHT22;20419;10.658;106.724;2022-07-29T08:57:55;32.60;60.80
34143;DHT22;20419;10.658;106.724;2022-07-29T09:00:21;32.60;60.70
34143;DHT22;20419;10.658;106.724;2022-07-29T09:10:13;32.70;60.80
34143;DHT22;20419;10.658;106.724;2022-07-29T09:15:07;32.60;60.80
34143;DHT22;20419;10.658;106.724;2022-07-29T09:17:40;32.50;61.10
34143;DHT22;20419;10.658;106.724;2022-07-29T09:22:34;32.50;60.80
34143;DHT22;20419;10.658;106.724;2022-07-29T09:27:27;32.60;60.90
34143;DHT22;20419;10.658;106.724;2022-07-29T09:30:10;32.60;60.90
34143;DHT22;20419;10.658;106.724;2022-07-29T09:32:59;32.70;61.00
34143;DHT22;20419;10.658;106.724;2022-07-29T09:35:27;32.70;60.80
34143;DHT22;20419;10.658;106.724;2022-07-29T09:37:54;32.60;60.70
34143;DHT22;20419;10.658;106.724;2022-07-29T09:42:47;32.70;60.90
34143;DHT22;20419;10.658;106.724;2022-07-29T09:45:30;32.70;60.90
34143;DHT22;20419;10.658;106.724;2022-07-29T09:47:57;32.60;60.80
34143;DHT22;20419;10.658;106.724;2022-07-29T09:50:36;32.60;60.90
34143;DHT22;20419;10.658;106.724;2022-07-29T09:53:02;32.70;61.10
34143;DHT22;20419;10.658;106.724;2022-07-29T09:55:29;32.60;60.90
34143;DHT22;20419;10.658;106.724;2022-07-29T09:58:14;32.60;61.10
34143;DHT22;20419;10.658;106.724;2022-07-29T10:00:44;32.60;61.00
34143;DHT22;20419;10.658;106.724;2022-07-29T10:03:12;32.70;61.00
34143;DHT22;20419;10.658;106.724;2022-07-29T10:08:06;32.70;61.10
34143;DHT22;20419;10.658;106.724;2022-07-29T10:10:35;32.70;61.00
34143;DHT22;20419;10.658;106.724;2022-07-29T10:13:06;32.60;61.00
34143;DHT22;20419;10.658;106.724;2022-07-29T10:15:34;32.60;61.10
34143;DHT22;20419;10.658;106.724;2022-07-29T10:18:07;32.70;61.10
34143;DHT22;20419;10.658;106.724;2022-07-29T10:20:34;32.70;61.10
34143;DHT22;20419;10.658;106.724;2022-07-29T10:23:01;32.60;60.90
34143;DHT22;20419;10.658;106.724;2022-07-29T10:25:28;32.70;61.00
34143;DHT22;20419;10.658;106.724;2022-07-29T10:27:55;32.70;60.90
34143;DHT22;20419;10.658;106.724;2022-07-29T10:30:25;32.60;61.00
34143;DHT22;20419;10.658;106.724;2022-07-29T10:43:23;32.70;61.00
34143;DHT22;20419;10.658;106.724;2022-07-29T10:45:54;32.70;61.10
34143;DHT22;20419;10.658;106.724;2022-07-29T10:53:15;32.70;61.00
34143;DHT22;20419;10.658;106.724;2022-07-29T10:55:41;32.70;61.10
34143;DHT22;20419;10.658;106.724;2022-07-29T11:03:07;32.70;61.00
34143;DHT22;20419;10.658;106.724;2022-07-29T11:05:53;32.70;61.10
34143;DHT22;20419;10.658;106.724;2022-07-29T11:08:20;32.70;61.10
34143;DHT22;20419;10.658;106.724;2022-07-29T11:10:50;32.60;60.90
34143;DHT22;20419;10.658;106.724;2022-07-29T11:16:02;32.60;60.90
34143;DHT22;20419;10.658;106.724;2022-07-29T11:18:29;32.60;61.00
34143;DHT22;20419;10.658;106.724;2022-07-29T11:20:55;32.60;58.80
34143;DHT22;20419;10.658;106.724;2022-07-29T11:31:03;32.70;61.00
34143;DHT22;20419;10.658;106.724;2022-07-29T11:33:30;32.60;60.90
34143;DHT22;20419;10.658;106.724;2022-07-29T11:36:07;32.70;61.00
34143;DHT22;20419;10.658;106.724;2022-07-29T11:38:35;32.70;61.10
34143;DHT22;20419;10.658;106.724;2022-07-29T11:46:14;32.70;61.10
34143;DHT22;20419;10.658;106.724;2022-07-29T11:51:10;32.70;60.20
34143;DHT22;20419;10.658;106.724;2022-07-29T11:53:38;32.70;61.20
34143;DHT22;20419;10.658;106.724;2022-07-29T11:56:07;32.60;61.10
34143;DHT22;20419;10.658;106.724;2022-07-29T11:58:35;32.50;61.10
34143;DHT22;20419;10.658;106.724;2022-07-29T12:01:03;32.70;61.30
34143;DHT22;20419;10.658;106.724;2022-07-29T12:03:31;32.80;61.50
34143;DHT22;20419;10.658;106.724;2022-07-29T12:05:58;32.70;61.40
34143;DHT22;20419;10.658;106.724;2022-07-29T12:10:52;32.70;61.50
34143;DHT22;20419;10.658;106.724;2022-07-29T12:15:52;32.70;62.10
34143;DHT22;20419;10.658;106.724;2022-07-29T12:18:19;32.70;61.70
34143;DHT22;20419;10.658;106.724;2022-07-29T12:20:47;32.80;60.10
34143;DHT22;20419;10.658;106.724;2022-07-29T12:23:14;32.70;62.30
34143;DHT22;20419;10.658;106.724;2022-07-29T12:25:42;32.70;62.10
34143;DHT22;20419;10.658;106.724;2022-07-29T12:28:11;32.70;62.20
34143;DHT22;20419;10.658;106.724;2022-07-29T12:30:40;32.70;62.50
34143;DHT22;20419;10.658;106.724;2022-07-29T12:35:43;32.60;62.50
34143;DHT22;20419;10.658;106.724;2022-07-29T12:38:11;32.70;62.60
34143;DHT22;20419;10.658;106.724;2022-07-29T12:40:38;32.80;62.80
34143;DHT22;20419;10.658;106.724;2022-07-29T12:45:32;32.70;62.90
34143;DHT22;20419;10.658;106.724;2022-07-29T12:47:59;32.80;63.60
34143;DHT22;20419;10.658;106.724;2022-07-29T12:50:26;32.70;63.00
34143;DHT22;20419;10.658;106.724;2022-07-29T12:52:52;32.70;63.20
34143;DHT22;20419;10.658;106.724;2022-07-29T12:55:38;32.70;63.00
34143;DHT22;20419;10.658;106.724;2022-07-29T12:58:05;32.80;63.00
34143;DHT22;20419;10.658;106.724;2022-07-29T13:00:33;32.70;63.10
34143;DHT22;20419;10.658;106.724;2022-07-29T13:02:59;32.70;63.10
34143;DHT22;20419;10.658;106.724;2022-07-29T13:05:42;32.80;63.20
34143;DHT22;20419;10.658;106.724;2022-07-29T13:08:13;32.80;63.20
34143;DHT22;20419;10.658;106.724;2022-07-29T13:10:40;32.70;63.30
34143;DHT22;20419;10.658;106.724;2022-07-29T13:13:09;32.70;63.10
34143;DHT22;20419;10.658;106.724;2022-07-29T13:15:40;32.70;63.40
34143;DHT22;20419;10.658;106.724;2022-07-29T13:18:28;32.80;63.50
34143;DHT22;20419;10.658;106.724;2022-07-29T13:20:54;32.70;63.20
34143;DHT22;20419;10.658;106.724;2022-07-29T13:23:21;32.80;63.70
34143;DHT22;20419;10.658;106.724;2022-07-29T13:25:48;32.80;63.30
34143;DHT22;20419;10.658;106.724;2022-07-29T13:28:15;32.70;63.20
34143;DHT22;20419;10.658;106.724;2022-07-29T13:33:08;32.70;63.40
34143;DHT22;20419;10.658;106.724;2022-07-29T13:35:35;32.70;63.80
34143;DHT22;20419;10.658;106.724;2022-07-29T13:40:28;32.90;63.80
34143;DHT22;20419;10.658;106.724;2022-07-29T13:42:56;32.70;63.50
34143;DHT22;20419;10.658;106.724;2022-07-29T13:45:22;32.70;63.20
34143;DHT22;20419;10.658;106.724;2022-07-29T13:47:49;32.80;62.70
34143;DHT22;20419;10.658;106.724;2022-07-29T13:50:16;32.70;63.20
34143;DHT22;20419;10.658;106.724;2022-07-29T13:55:09;32.80;63.20
34143;DHT22;20419;10.658;106.724;2022-07-29T13:57:36;32.80;63.30
34143;DHT22;20419;10.658;106.724;2022-07-29T14:00:03;32.80;63.30
34143;DHT22;20419;10.658;106.724;2022-07-29T14:02:30;32.80;63.40
34143;DHT22;20419;10.658;106.724;2022-07-29T14:04:57;32.80;63.60
34143;DHT22;20419;10.658;106.724;2022-07-29T14:07:23;32.80;63.40
34143;DHT22;20419;10.658;106.724;2022-07-29T14:09:50;32.80;63.40
34143;DHT22;20419;10.658;106.724;2022-07-29T14:12:17;32.80;63.30
34143;DHT22;20419;10.658;106.724;2022-07-29T14:14:44;32.80;63.60
34143;DHT22;20419;10.658;106.724;2022-07-29T14:19:37;32.80;63.40
34143;DHT22;20419;10.658;106.724;2022-07-29T14:22:05;32.80;63.50
34143;DHT22;20419;10.658;106.724;2022-07-29T14:24:32;32.80;63.50
34143;DHT22;20419;10.658;106.724;2022-07-29T14:26:59;32.80;63.40
34143;DHT22;20419;10.658;106.724;2022-07-29T14:31:52;32.80;63.60
34143;DHT22;20419;10.658;106.724;2022-07-29T14:36:45;32.80;63.60
34143;DHT22;20419;10.658;106.724;2022-07-29T14:39:12;32.80;63.50
34143;DHT22;20419;10.658;106.724;2022-07-29T14:44:05;32.80;64.50
34143;DHT22;20419;10.658;106.724;2022-07-29T14:46:32;32.90;63.80
34143;DHT22;20419;10.658;106.724;2022-07-29T14:51:25;32.80;63.90
34143;DHT22;20419;10.658;106.724;2022-07-29T14:53:52;32.80;63.80
34143;DHT22;20419;10.658;106.724;2022-07-29T14:58:45;32.80;64.00
34143;DHT22;20419;10.658;106.724;2022-07-29T15:01:11;32.80;61.50
34143;DHT22;20419;10.658;106.724;2022-07-29T15:06:05;32.90;63.90
34143;DHT22;20419;10.658;106.724;2022-07-29T15:11:00;32.90;63.80
34143;DHT22;20419;10.658;106.724;2022-07-29T15:13:27;32.90;63.90
34143;DHT22;20419;10.658;106.724;2022-07-29T15:15:55;32.90;63.90
34143;DHT22;20419;10.658;106.724;2022-07-29T15:20:48;32.90;64.00
34143;DHT22;20419;10.658;106.724;2022-07-29T15:25:41;32.80;63.90
34143;DHT22;20419;10.658;106.724;2022-07-29T15:28:08;32.90;63.90
34143;DHT22;20419;10.658;106.724;2022-07-29T15:30:35;32.80;64.00
34143;DHT22;20419;10.658;106.724;2022-07-29T15:37:59;32.90;64.20
34143;DHT22;20419;10.658;106.724;2022-07-29T15:40:27;32.90;64.10
34143;DHT22;20419;10.658;106.724;2022-07-29T15:45:20;32.80;64.00
34143;DHT22;20419;10.658;106.724;2022-07-29T15:52:41;32.80;64.10
34143;DHT22;20419;10.658;106.724;2022-07-29T15:57:35;32.90;64.10
34143;DHT22;20419;10.658;106.724;2022-07-29T16:02:28;32.80;64.00
34143;DHT22;20419;10.658;106.724;2022-07-29T16:04:55;32.90;63.50
34143;DHT22;20419;10.658;106.724;2022-07-29T16:07:21;32.90;64.10
34143;DHT22;20419;10.658;106.724;2022-07-29T16:09:48;32.90;64.20
34143;DHT22;20419;10.658;106.724;2022-07-29T16:14:42;32.90;64.10
34143;DHT22;20419;10.658;106.724;2022-07-29T16:17:09;32.90;64.10
34143;DHT22;20419;10.658;106.724;2022-07-29T16:19:35;32.90;64.10
34143;DHT22;20419;10.658;106.724;2022-07-29T16:26:56;32.90;64.20
34143;DHT22;20419;10.658;106.724;2022-07-29T16:34:17;32.90;64.40
34143;DHT22;20419;10.658;106.724;2022-07-29T16:36:44;32.80;64.30
34143;DHT22;20419;10.658;106.724;2022-07-29T16:41:37;32.90;64.40
34143;DHT22;20419;10.658;106.724;2022-07-29T16:44:04;32.90;64.30
34143;DHT22;20419;10.658;106.724;2022-07-29T16:46:31;32.90;64.40
34143;DHT22;20419;10.658;106.724;2022-07-29T16:49:02;32.90;64.50
34143;DHT22;20419;10.658;106.724;2022-07-29T16:51:32;32.90;64.50
34143;DHT22;20419;10.658;106.724;2022-07-29T16:53:58;32.90;64.40
34143;DHT22;20419;10.658;106.724;2022-07-29T16:56:25;32.90;64.40
34143;DHT22;20419;10.658;106.724;2022-07-29T16:58:52;32.90;64.50
34143;DHT22;20419;10.658;106.724;2022-07-29T17:01:19;32.90;64.50
34143;DHT22;20419;10.658;106.724;2022-07-29T17:11:27;32.90;64.60
34143;DHT22;20419;10.658;106.724;2022-07-29T17:16:20;32.90;64.70
34143;DHT22;20419;10.658;106.724;2022-07-29T17:18:50;32.90;64.80
34143;DHT22;20419;10.658;106.724;2022-07-29T17:21:17;32.90;64.70
34143;DHT22;20419;10.658;106.724;2022-07-29T17:28:37;32.90;64.70
34143;DHT22;20419;10.658;106.724;2022-07-29T17:31:04;32.90;64.70
34143;DHT22;20419;10.658;106.724;2022-07-29T17:35:57;32.90;64.80
34143;DHT22;20419;10.658;106.724;2022-07-29T17:38:42;32.90;64.80
34143;DHT22;20419;10.658;106.724;2022-07-29T17:41:08;32.90;64.80
34143;DHT22;20419;10.658;106.724;2022-07-29T17:46:02;32.90;64.80
34143;DHT22;20419;10.658;106.724;2022-07-29T17:48:28;32.90;64.80
34143;DHT22;20419;10.658;106.724;2022-07-29T17:53:21;32.90;64.80
34143;DHT22;20419;10.658;106.724;2022-07-29T17:55:48;32.90;64.90
34143;DHT22;20419;10.658;106.724;2022-07-29T17:58:15;32.90;64.90
34143;DHT22;20419;10.658;106.724;2022-07-29T18:00:42;32.90;64.80
34143;DHT22;20419;10.658;106.724;2022-07-29T18:03:09;32.90;64.80
34143;DHT22;20419;10.658;106.724;2022-07-29T18:08:02;32.90;64.90
34143;DHT22;20419;10.658;106.724;2022-07-29T18:10:29;32.90;65.00
34143;DHT22;20419;10.658;106.724;2022-07-29T18:12:56;32.80;65.00
34143;DHT22;20419;10.658;106.724;2022-07-29T18:15:22;32.90;65.00
34143;DHT22;20419;10.658;106.724;2022-07-29T18:17:49;32.90;65.10
34143;DHT22;20419;10.658;106.724;2022-07-29T18:20:15;32.90;64.90
34143;DHT22;20419;10.658;106.724;2022-07-29T18:22:42;32.90;65.00
34143;DHT22;20419;10.658;106.724;2022-07-29T18:25:09;33.00;65.10
34143;DHT22;20419;10.658;106.724;2022-07-29T18:27:36;32.90;63.10
34143;DHT22;20419;10.658;106.724;2022-07-29T18:30:04;32.80;64.70
34143;DHT22;20419;10.658;106.724;2022-07-29T18:34:57;32.90;62.80
34143;DHT22;20419;10.658;106.724;2022-07-29T18:37:27;32.90;65.10
34143;DHT22;20419;10.658;106.724;2022-07-29T18:39:54;32.90;65.20
34143;DHT22;20419;10.658;106.724;2022-07-29T18:44:47;32.90;62.70
34143;DHT22;20419;10.658;106.724;2022-07-29T18:47:14;32.90;65.30
34143;DHT22;20419;10.658;106.724;2022-07-29T19:01:55;33.00;65.30
34143;DHT22;20419;10.658;106.724;2022-07-29T19:04:22;32.90;65.40
34143;DHT22;20419;10.658;106.724;2022-07-29T19:06:48;32.90;65.30
34143;DHT22;20419;10.658;106.724;2022-07-29T19:09:15;32.90;65.30
34143;DHT22;20419;10.658;106.724;2022-07-29T19:11:42;32.90;65.40
34143;DHT22;20419;10.658;106.724;2022-07-29T19:14:09;32.90;65.40
34143;DHT22;20419;10.658;106.724;2022-07-29T19:16:36;32.90;63.60
34143;DHT22;20419;10.658;106.724;2022-07-29T19:23:56;32.90;65.50
34143;DHT22;20419;10.658;106.724;2022-07-29T19:26:23;32.90;65.40
34143;DHT22;20419;10.658;106.724;2022-07-29T19:28:50;32.90;65.50
34143;DHT22;20419;10.658;106.724;2022-07-29T19:31:17;32.90;65.50
34143;DHT22;20419;10.658;106.724;2022-07-29T19:33:43;32.90;65.50
34143;DHT22;20419;10.658;106.724;2022-07-29T19:36:10;32.90;65.60
34143;DHT22;20419;10.658;106.724;2022-07-29T19:38:37;32.80;65.40
34143;DHT22;20419;10.658;106.724;2022-07-29T19:43:31;32.80;65.50
34143;DHT22;20419;10.658;106.724;2022-07-29T19:45:59;32.90;65.60
34143;DHT22;20419;10.658;106.724;2022-07-29T19:48:26;32.90;65.60
34143;DHT22;20419;10.658;106.724;2022-07-29T19:50:52;32.80;65.60
34143;DHT22;20419;10.658;106.724;2022-07-29T19:55:45;32.90;65.70
34143;DHT22;20419;10.658;106.724;2022-07-29T19:58:12;32.80;65.60
34143;DHT22;20419;10.658;106.724;2022-07-29T20:00:39;32.80;65.70
34143;DHT22;20419;10.658;106.724;2022-07-29T20:03:06;32.90;65.80
34143;DHT22;20419;10.658;106.724;2022-07-29T20:05:33;32.90;65.70
34143;DHT22;20419;10.658;106.724;2022-07-29T20:10:29;32.90;65.70
34143;DHT22;20419;10.658;106.724;2022-07-29T20:15:22;32.90;65.70
34143;DHT22;20419;10.658;106.724;2022-07-29T20:17:49;32.90;65.80
34143;DHT22;20419;10.658;106.724;2022-07-29T20:20:16;32.90;65.80
34143;DHT22;20419;10.658;106.724;2022-07-29T20:22:43;32.90;65.80
34143;DHT22;20419;10.658;106.724;2022-07-29T20:25:10;32.80;65.60
34143;DHT22;20419;10.658;106.724;2022-07-29T20:27:38;32.90;65.80
34143;DHT22;20419;10.658;106.724;2022-07-29T20:30:05;32.80;65.70
34143;DHT22;20419;10.658;106.724;2022-07-29T20:32:32;32.90;65.80
34143;DHT22;20419;10.658;106.724;2022-07-29T20:34:59;32.90;65.70
34143;DHT22;20419;10.658;106.724;2022-07-29T20:37:26;32.90;65.90
34143;DHT22;20419;10.658;106.724;2022-07-29T20:39:52;32.90;65.90
34143;DHT22;20419;10.658;106.724;2022-07-29T20:44:45;32.90;65.80
34143;DHT22;20419;10.658;106.724;2022-07-29T20:47:14;32.90;65.90
34143;DHT22;20419;10.658;106.724;2022-07-29T20:52:07;32.90;66.00
34143;DHT22;20419;10.658;106.724;2022-07-29T20:54:34;32.90;65.90
34143;DHT22;20419;10.658;106.724;2022-07-29T20:57:00;32.90;65.80
34143;DHT22;20419;10.658;106.724;2022-07-29T20:59:27;32.90;66.00
34143;DHT22;20419;10.658;106.724;2022-07-29T21:04:21;32.90;66.00